This is the latest recevied weather packets stored in our database for station/object ED1ZAI-13. If no packets are shown the sender has not sent any weather packets the latest 10 day(s).
| Time | Temp. | Humidity | Pressure | Rain* | Wind** | Luminosity | Snow |
|---|---|---|---|---|---|---|---|
| 1777874628 | 10.56° C | 81% | 1011.1 hPa | 0 mm | - | - | - |
| 1777874029 | 10° C | 83% | 1011.1 hPa | 0 mm | - | - | - |
| 1777873415 | 10° C | 84% | 1011.2 hPa | 0 mm | - | - | - |
| 1777872815 | 8.89° C | 83% | 1011.3 hPa | 0 mm | - | - | - |
| 1777872214 | 10.56° C | 79% | 1010.7 hPa | 0 mm | - | - | - |
| 1777871614 | 10.56° C | 80% | 1010.6 hPa | 0 mm | - | - | - |
| 1777871014 | 10.56° C | 80% | 1010.7 hPa | 0 mm | - | - | - |
| 1777870415 | 10.56° C | 80% | 1010.6 hPa | 0 mm | - | - | - |
| 1777869815 | 10.56° C | 81% | 1010.6 hPa | 0 mm | - | - | - |
| 1777869214 | 10° C | 82% | 1010.7 hPa | 0 mm | - | - | - |
| 1777868614 | 9.44° C | 81% | 1010.6 hPa | 0 mm | - | - | - |
| 1777868014 | 10.56° C | 81% | 1010.6 hPa | 0 mm | - | - | - |
| 1777867413 | 10° C | 83% | 1010.8 hPa | 0 mm | - | - | - |
| 1777866815 | 9.44° C | 82% | 1011 hPa | 0 mm | - | - | - |
| 1777866215 | 10° C | 81% | 1010.9 hPa | 0 mm | - | - | - |
| 1777865615 | 10° C | 81% | 1011 hPa | 0 mm | - | - | - |
| 1777865014 | 10.56° C | 80% | 1011.1 hPa | 0 mm | - | - | - |
| 1777864414 | 11.11° C | 78% | 1011 hPa | 0 mm | - | - | - |
| 1777863814 | 10.56° C | 78% | 1011 hPa | 0 mm | - | - | - |
| 1777863214 | 11.11° C | 79% | 1011 hPa | 0 mm | - | - | - |
| 1777862614 | 11.11° C | 78% | 1011 hPa | 0 mm | - | - | - |
| 1777862015 | 11.11° C | 79% | 1011.3 hPa | 0 mm | - | - | - |
| 1777861415 | 11.11° C | 78% | 1011.3 hPa | 0 mm | - | - | - |
| 1777860815 | 10.56° C | 78% | 1011.3 hPa | 0 mm | - | - | - |
| 1777860214 | 11.11° C | 77% | 1011.1 hPa | 0 mm | - | - | - |
* Rain latest hour (hover to see other rain measurements)
** Current wind speed in m/s (hover to see current wind gust speed)